createdAt,value
2022-07-31T00:06:26.108Z,20.20
2022-07-31T00:14:24.278Z,19.80
2022-07-31T00:16:51.283Z,19.70
2022-07-31T00:19:18.186Z,19.50
2022-07-31T00:22:00.365Z,19.50
2022-07-31T00:24:27.825Z,19.40
2022-07-31T00:26:59.253Z,19.40
2022-07-31T00:29:32.710Z,19.40
2022-07-31T00:31:59.720Z,19.30
2022-07-31T00:34:28.781Z,19.20
2022-07-31T00:36:56.600Z,19.20
2022-07-31T00:55:50.990Z,19.30
2022-07-31T00:58:23.606Z,19.50
2022-07-31T01:00:50.893Z,19.40
2022-07-31T01:03:18.976Z,19.40
2022-07-31T01:05:48.028Z,19.20
2022-07-31T01:08:15.335Z,19.10
2022-07-31T01:11:06.951Z,19.10
2022-07-31T01:13:39.287Z,19.10
2022-07-31T01:16:14.384Z,19.20
2022-07-31T01:18:46.516Z,19.10
2022-07-31T01:21:21.966Z,19.10
2022-07-31T01:24:18.802Z,19.20
2022-07-31T01:27:04.300Z,19.20
2022-07-31T01:29:46.191Z,19.00
2022-07-31T01:38:14.370Z,19.10
2022-07-31T01:43:35.529Z,19.40
2022-07-31T01:46:05.987Z,19.50
2022-07-31T01:48:40.181Z,19.50
2022-07-31T01:51:16.556Z,19.40
2022-07-31T01:53:54.130Z,19.60
2022-07-31T01:56:22.071Z,19.50
2022-07-31T01:58:50.796Z,19.40
2022-07-31T02:01:27.297Z,19.40
2022-07-31T02:03:57.553Z,19.40
2022-07-31T02:06:29.244Z,19.40
2022-07-31T02:09:03.099Z,19.50
2022-07-31T02:12:03.909Z,19.60
2022-07-31T02:14:25.410Z,19.50
2022-07-31T02:16:53.706Z,19.40
2022-07-31T02:19:21.704Z,19.40
2022-07-31T02:21:50.261Z,19.30
2022-07-31T02:24:17.716Z,19.30
2022-07-31T02:26:46.282Z,19.10
2022-07-31T02:29:19.655Z,19.10
2022-07-31T02:32:03.151Z,19.10
2022-07-31T02:34:38.697Z,19.10
2022-07-31T02:37:09.346Z,19.20
2022-07-31T02:39:49.259Z,19.20
2022-07-31T02:42:19.405Z,19.10
2022-07-31T02:44:49.783Z,19.20
2022-07-31T02:47:37.283Z,19.20
2022-07-31T02:50:07.972Z,19.10
2022-07-31T02:52:41.311Z,19.10
2022-07-31T02:55:14.403Z,19.10
2022-07-31T02:57:59.036Z,19.00
2022-07-31T03:00:57.927Z,18.90
2022-07-31T03:03:27.168Z,18.80
2022-07-31T03:06:01.552Z,18.80
2022-07-31T03:11:04.125Z,18.90
2022-07-31T03:13:34.954Z,18.80
2022-07-31T03:16:05.868Z,18.80
2022-07-31T03:18:33.287Z,18.80
2022-07-31T03:21:00.226Z,18.80
2022-07-31T03:23:36.102Z,18.70
2022-07-31T03:26:05.349Z,18.70
2022-07-31T03:28:35.072Z,18.60
2022-07-31T03:31:07.882Z,18.70
2022-07-31T03:33:34.839Z,18.70
2022-07-31T03:36:01.997Z,18.70
2022-07-31T03:38:42.597Z,18.60
2022-07-31T03:41:13.800Z,18.60
2022-07-31T03:43:47.919Z,18.80
2022-07-31T03:46:23.559Z,18.70
2022-07-31T03:48:52.635Z,18.70
2022-07-31T03:51:20.943Z,18.70
2022-07-31T03:59:15.363Z,18.70
2022-07-31T04:01:58.017Z,18.70
2022-07-31T04:04:33.696Z,18.60
2022-07-31T04:07:19.529Z,18.50
2022-07-31T04:10:04.325Z,18.40
2022-07-31T04:12:41.455Z,18.50
2022-07-31T04:15:14.386Z,18.50
2022-07-31T04:17:42.565Z,18.60
2022-07-31T04:20:25.175Z,18.50
2022-07-31T04:22:57.699Z,18.70
2022-07-31T04:25:36.294Z,18.70
2022-07-31T04:28:12.529Z,18.80
2022-07-31T04:30:39.804Z,18.70
2022-07-31T04:33:28.767Z,18.60
2022-07-31T04:36:07.939Z,18.70
2022-07-31T04:39:11.850Z,18.60
2022-07-31T04:41:47.437Z,18.60
2022-07-31T04:44:26.802Z,18.70
2022-07-31T04:47:04.387Z,18.70
2022-07-31T04:57:34.611Z,18.70
2022-07-31T05:00:19.939Z,18.70
2022-07-31T05:02:49.035Z,18.60
2022-07-31T05:05:18.367Z,18.70
2022-07-31T05:13:09.028Z,18.90
2022-07-31T05:15:41.733Z,18.80
2022-07-31T05:18:08.788Z,19.00
2022-07-31T05:20:41.058Z,19.00
2022-07-31T05:23:08.088Z,19.00
2022-07-31T05:36:22.864Z,18.90
2022-07-31T05:41:34.545Z,18.90
2022-07-31T05:46:36.700Z,19.10
2022-07-31T05:59:47.119Z,19.30
2022-07-31T06:02:13.824Z,19.30
2022-07-31T06:04:40.900Z,19.50
2022-07-31T06:07:07.919Z,19.80
2022-07-31T06:09:35.016Z,20.10
2022-07-31T06:12:02.196Z,20.30
2022-07-31T06:14:29.094Z,20.80
2022-07-31T06:16:56.151Z,21.70
2022-07-31T06:19:24.360Z,23.10
2022-07-31T06:22:01.877Z,24.00
2022-07-31T06:24:28.746Z,23.50
2022-07-31T06:26:59.855Z,22.60
2022-07-31T06:29:41.042Z,23.20
2022-07-31T06:32:09.178Z,23.90
2022-07-31T06:34:36.226Z,24.10
2022-07-31T06:37:03.204Z,24.00
2022-07-31T06:39:55.277Z,23.70
2022-07-31T06:42:24.190Z,24.40
2022-07-31T06:44:51.561Z,26.70
2022-07-31T06:47:19.671Z,26.90
2022-07-31T06:49:46.667Z,26.80
2022-07-31T06:52:13.885Z,25.80
2022-07-31T06:54:40.816Z,26.10
2022-07-31T06:57:07.534Z,25.80
2022-07-31T06:59:39.437Z,26.50
2022-07-31T07:02:08.702Z,26.80
2022-07-31T07:05:04.750Z,26.80
2022-07-31T07:07:22.669Z,26.50
2022-07-31T07:09:49.811Z,26.20
2022-07-31T07:12:16.686Z,26.20
2022-07-31T07:14:44.372Z,26.10
2022-07-31T07:17:11.285Z,27.20
2022-07-31T07:19:41.424Z,27.50
2022-07-31T07:22:08.504Z,27.60
2022-07-31T07:24:35.291Z,28.30
2022-07-31T07:27:02.352Z,28.30
2022-07-31T07:29:29.418Z,28.60
2022-07-31T07:31:56.238Z,29.10
2022-07-31T07:34:23.145Z,28.50
2022-07-31T07:36:50.129Z,27.40
2022-07-31T07:39:17.449Z,27.50
2022-07-31T07:41:44.255Z,27.50
2022-07-31T07:44:11.265Z,28.90
2022-07-31T07:46:38.359Z,30.60
2022-07-31T07:49:06.732Z,31.80
2022-07-31T07:51:33.738Z,30.50
2022-07-31T07:54:01.320Z,29.10
2022-07-31T07:56:28.274Z,29.30
2022-07-31T07:58:55.543Z,30.20
2022-07-31T08:01:22.446Z,31.40
2022-07-31T08:03:52.045Z,32.00
2022-07-31T08:06:21.183Z,31.50
2022-07-31T08:08:48.125Z,30.70
2022-07-31T08:11:16.974Z,29.80
2022-07-31T08:13:50.092Z,30.90
2022-07-31T08:16:19.776Z,31.90
2022-07-31T08:18:47.040Z,29.80
2022-07-31T08:21:13.872Z,29.30
2022-07-31T08:23:40.944Z,28.40
2022-07-31T08:26:11.528Z,28.70
2022-07-31T08:28:40.338Z,28.10
2022-07-31T08:31:08.116Z,28.00
2022-07-31T08:33:34.929Z,27.00
2022-07-31T08:36:02.418Z,27.50
2022-07-31T08:38:29.350Z,28.70
2022-07-31T08:40:56.495Z,29.40
2022-07-31T08:44:00.601Z,30.50
2022-07-31T08:46:11.175Z,31.60
2022-07-31T08:48:41.694Z,31.10
2022-07-31T08:51:11.585Z,30.60
2022-07-31T08:53:39.842Z,29.50
2022-07-31T08:56:09.106Z,29.10
2022-07-31T08:58:39.372Z,29.60
2022-07-31T09:01:08.183Z,29.90
2022-07-31T09:03:36.146Z,31.30
2022-07-31T09:06:05.074Z,31.40
2022-07-31T09:08:41.086Z,32.10
2022-07-31T09:11:13.298Z,32.00
2022-07-31T09:14:02.458Z,31.00
2022-07-31T09:16:31.248Z,30.10
2022-07-31T09:19:03.842Z,30.20
2022-07-31T09:21:52.372Z,29.10
2022-07-31T09:24:29.565Z,28.70
2022-07-31T09:27:09.986Z,28.40
2022-07-31T09:29:39.291Z,28.70
2022-07-31T09:32:21.061Z,29.20
2022-07-31T09:34:49.290Z,28.70
2022-07-31T09:37:20.292Z,28.10
2022-07-31T09:39:54.875Z,27.60
2022-07-31T09:42:34.493Z,27.10
2022-07-31T09:45:01.380Z,28.10
2022-07-31T09:47:30.868Z,28.00
2022-07-31T09:49:59.803Z,28.50
2022-07-31T09:52:28.671Z,28.50
2022-07-31T09:55:02.576Z,28.60
2022-07-31T09:57:53.308Z,27.90
2022-07-31T10:00:22.496Z,27.50
2022-07-31T10:02:50.972Z,28.30
2022-07-31T10:05:18.222Z,28.90
2022-07-31T10:07:46.820Z,29.60
2022-07-31T10:10:14.375Z,29.00
2022-07-31T10:12:44.962Z,28.80
2022-07-31T10:15:14.680Z,27.90
2022-07-31T10:17:45.511Z,27.50
2022-07-31T10:20:17.367Z,27.00
2022-07-31T10:22:47.019Z,26.90
2022-07-31T10:25:25.239Z,26.30
2022-07-31T10:27:54.130Z,25.70
2022-07-31T10:30:23.732Z,25.40
2022-07-31T10:32:54.658Z,25.70
2022-07-31T10:35:22.637Z,26.10
2022-07-31T10:37:56.004Z,26.30
2022-07-31T10:40:35.294Z,26.20
2022-07-31T10:43:25.657Z,25.70
2022-07-31T10:45:54.990Z,26.10
2022-07-31T10:48:23.161Z,26.60
2022-07-31T10:51:02.189Z,26.80
2022-07-31T10:53:50.278Z,27.90
2022-07-31T10:56:16.984Z,29.00
2022-07-31T10:58:52.798Z,28.60
2022-07-31T11:01:19.611Z,28.60
2022-07-31T11:03:49.593Z,28.50
2022-07-31T11:06:17.758Z,28.50
2022-07-31T11:08:52.663Z,27.50
2022-07-31T11:11:36.901Z,27.60
2022-07-31T11:14:04.256Z,27.60
2022-07-31T11:16:31.213Z,27.40
2022-07-31T11:18:58.330Z,26.70
2022-07-31T11:21:39.659Z,26.10
2022-07-31T11:24:26.226Z,26.30
2022-07-31T11:26:55.356Z,26.10
2022-07-31T11:29:59.900Z,25.80
2022-07-31T11:32:14.175Z,25.80
2022-07-31T11:34:46.642Z,25.50
2022-07-31T11:37:23.162Z,25.80
2022-07-31T11:39:55.115Z,26.20
2022-07-31T11:42:27.762Z,26.10
2022-07-31T11:45:08.424Z,26.40
2022-07-31T11:48:11.699Z,26.50
2022-07-31T11:50:39.910Z,25.90
2022-07-31T11:53:07.110Z,26.20
2022-07-31T11:55:44.218Z,26.60
2022-07-31T11:58:11.276Z,26.50
2022-07-31T12:00:38.247Z,26.50
2022-07-31T12:03:08.540Z,26.10
2022-07-31T12:05:44.487Z,26.10
2022-07-31T12:08:12.508Z,26.50
2022-07-31T12:10:40.567Z,26.20
2022-07-31T12:13:16.882Z,27.00
2022-07-31T12:16:00.787Z,28.40
2022-07-31T12:18:29.169Z,29.50
2022-07-31T12:21:01.548Z,28.40
2022-07-31T12:23:41.768Z,28.10
2022-07-31T12:26:13.220Z,27.50
2022-07-31T12:28:40.723Z,27.00
2022-07-31T12:31:07.473Z,26.40
2022-07-31T12:33:42.247Z,26.20
2022-07-31T12:36:16.493Z,26.50
2022-07-31T12:38:48.175Z,26.80
2022-07-31T12:41:16.663Z,27.80
2022-07-31T12:43:51.884Z,29.00
2022-07-31T12:46:34.558Z,28.10
2022-07-31T12:49:01.353Z,27.20
2022-07-31T12:51:45.986Z,26.50
2022-07-31T12:54:17.055Z,26.40
2022-07-31T12:56:44.851Z,27.00
2022-07-31T12:59:12.136Z,28.30
2022-07-31T13:01:39.654Z,28.20
2022-07-31T13:04:07.923Z,27.60
2022-07-31T13:06:37.381Z,27.30
2022-07-31T13:09:04.213Z,27.10
2022-07-31T13:11:46.696Z,27.50
2022-07-31T13:14:20.336Z,28.10
2022-07-31T13:16:48.299Z,28.10
2022-07-31T13:19:15.452Z,29.10
2022-07-31T13:21:48.586Z,29.50
2022-07-31T13:24:20.231Z,29.20
2022-07-31T13:26:51.191Z,28.40
2022-07-31T13:29:18.270Z,28.60
2022-07-31T13:31:45.422Z,28.40
2022-07-31T13:34:12.797Z,28.00
2022-07-31T13:36:40.070Z,28.20
2022-07-31T13:39:08.325Z,27.60
2022-07-31T13:41:35.957Z,28.10
2022-07-31T13:44:05.101Z,28.10
2022-07-31T13:46:31.978Z,27.60
2022-07-31T13:48:59.593Z,27.20
2022-07-31T13:51:29.416Z,26.90
2022-07-31T13:53:56.675Z,27.00
2022-07-31T13:56:34.090Z,26.90
2022-07-31T13:59:11.462Z,27.00
2022-07-31T14:02:03.259Z,26.90
2022-07-31T14:04:30.403Z,26.70
2022-07-31T14:07:01.283Z,27.10
2022-07-31T14:09:30.670Z,27.30
2022-07-31T14:11:57.653Z,27.10
2022-07-31T14:14:24.776Z,26.90
2022-07-31T14:16:51.755Z,27.00
2022-07-31T14:19:18.834Z,26.90
2022-07-31T14:21:56.214Z,27.10
2022-07-31T14:24:25.401Z,26.70
2022-07-31T14:26:52.732Z,26.50
2022-07-31T14:29:19.804Z,26.70
2022-07-31T14:31:46.764Z,26.60
2022-07-31T14:34:13.518Z,26.40
2022-07-31T14:36:41.284Z,26.70
2022-07-31T14:39:08.359Z,26.90
2022-07-31T14:41:35.046Z,27.00
2022-07-31T14:44:02.958Z,26.90
2022-07-31T14:46:29.851Z,27.20
2022-07-31T14:48:57.075Z,27.60
2022-07-31T14:51:24.095Z,27.50
2022-07-31T14:53:52.410Z,27.00
2022-07-31T14:56:34.771Z,26.80
2022-07-31T14:59:06.077Z,26.90
2022-07-31T15:01:32.893Z,27.30
2022-07-31T15:03:59.996Z,27.30
2022-07-31T15:06:39.869Z,27.00
2022-07-31T15:09:14.918Z,26.70
2022-07-31T15:11:59.660Z,26.40
2022-07-31T15:14:27.612Z,26.50
2022-07-31T15:16:54.613Z,26.80
2022-07-31T15:19:21.301Z,27.10
2022-07-31T15:22:10.573Z,27.40
2022-07-31T15:24:35.004Z,27.40
2022-07-31T15:27:02.115Z,27.40
2022-07-31T15:30:04.209Z,26.80
2022-07-31T15:32:18.278Z,26.70
2022-07-31T15:34:44.905Z,26.70
2022-07-31T15:37:11.708Z,26.90
2022-07-31T15:40:02.112Z,26.90
2022-07-31T15:42:38.022Z,26.80
2022-07-31T15:45:05.491Z,26.80
2022-07-31T15:47:32.222Z,26.50
2022-07-31T15:49:59.332Z,26.30
2022-07-31T15:52:26.437Z,26.10
2022-07-31T15:54:53.677Z,25.80
2022-07-31T15:57:21.620Z,25.60
2022-07-31T15:59:49.656Z,25.50
2022-07-31T16:02:17.208Z,25.50
2022-07-31T16:04:51.909Z,25.70
2022-07-31T16:08:30.359Z,26.00
2022-07-31T16:10:16.193Z,26.30
2022-07-31T16:12:47.862Z,26.50
2022-07-31T16:15:16.412Z,26.50
2022-07-31T16:17:43.992Z,26.60
2022-07-31T16:20:25.991Z,26.50
2022-07-31T16:23:01.361Z,26.70
2022-07-31T16:25:34.504Z,26.80
2022-07-31T16:28:04.111Z,26.60
2022-07-31T16:30:31.430Z,26.70
2022-07-31T16:32:58.404Z,26.80
2022-07-31T16:35:28.244Z,26.80
2022-07-31T16:37:55.475Z,26.90
2022-07-31T16:40:30.223Z,26.80
2022-07-31T16:43:01.092Z,26.70
2022-07-31T16:45:28.632Z,26.70
2022-07-31T16:47:55.410Z,26.60
2022-07-31T16:50:22.265Z,26.50
2022-07-31T16:52:52.650Z,26.50
2022-07-31T16:56:00.166Z,26.50
2022-07-31T16:58:11.464Z,26.30
2022-07-31T17:00:39.374Z,26.10
2022-07-31T17:03:06.380Z,26.00
2022-07-31T17:05:33.437Z,25.70
2022-07-31T17:08:00.502Z,25.80
2022-07-31T17:10:27.679Z,25.70
2022-07-31T17:12:56.738Z,25.70
2022-07-31T17:15:23.779Z,25.60
2022-07-31T17:17:50.915Z,25.40
2022-07-31T17:20:24.343Z,25.10
2022-07-31T17:22:54.725Z,25.10
2022-07-31T17:25:23.025Z,25.10
2022-07-31T17:27:51.980Z,25.10
2022-07-31T17:30:18.984Z,25.00
2022-07-31T17:32:45.683Z,25.10
2022-07-31T17:35:13.659Z,24.90
2022-07-31T17:37:40.760Z,24.80
2022-07-31T17:40:27.258Z,24.70
2022-07-31T17:42:55.280Z,24.30
2022-07-31T17:45:22.272Z,24.40
2022-07-31T17:48:03.346Z,24.50
2022-07-31T17:50:31.155Z,24.50
2022-07-31T17:52:57.807Z,24.50
2022-07-31T17:55:24.523Z,24.50
2022-07-31T17:57:51.217Z,24.70
2022-07-31T18:00:19.575Z,24.70
2022-07-31T18:02:46.482Z,24.80
2022-07-31T18:05:13.192Z,24.80
2022-07-31T18:07:40.040Z,24.80
2022-07-31T18:10:09.282Z,24.70
2022-07-31T18:12:56.943Z,24.70
2022-07-31T18:15:23.040Z,24.60
2022-07-31T18:18:02.888Z,24.30
2022-07-31T18:20:29.652Z,24.20
2022-07-31T18:22:56.389Z,24.10
2022-07-31T18:25:23.359Z,24.20
2022-07-31T18:27:50.395Z,24.20
2022-07-31T18:30:17.074Z,24.40
2022-07-31T18:32:45.116Z,24.40
2022-07-31T18:35:11.800Z,24.20
2022-07-31T18:37:38.488Z,23.90
2022-07-31T18:40:06.231Z,23.80
2022-07-31T18:42:33.023Z,23.70
2022-07-31T18:44:59.824Z,23.30
2022-07-31T18:47:26.663Z,23.40
2022-07-31T18:51:00.415Z,23.50
2022-07-31T18:52:40.155Z,23.50
2022-07-31T18:55:07.355Z,23.40
2022-07-31T18:57:34.088Z,23.40
2022-07-31T19:00:01.223Z,23.40
2022-07-31T19:02:28.312Z,23.40
2022-07-31T19:04:55.184Z,23.50
2022-07-31T19:07:21.936Z,23.60
2022-07-31T19:09:48.764Z,23.60
2022-07-31T19:12:15.800Z,23.60
2022-07-31T19:14:43.292Z,23.50
2022-07-31T19:17:10.008Z,23.10
2022-07-31T19:19:52.760Z,23.10
2022-07-31T19:22:21.489Z,23.10
2022-07-31T19:24:49.417Z,23.10
2022-07-31T19:27:16.467Z,23.10
2022-07-31T19:29:43.279Z,23.10
2022-07-31T19:32:11.421Z,23.10
2022-07-31T19:34:38.659Z,23.10
2022-07-31T19:37:09.868Z,23.00
2022-07-31T19:39:36.860Z,22.80
2022-07-31T19:42:11.952Z,22.60
2022-07-31T19:44:39.260Z,22.70
2022-07-31T19:47:06.345Z,22.60
2022-07-31T19:49:36.535Z,22.70
2022-07-31T19:52:05.893Z,22.40
2022-07-31T19:54:32.914Z,22.20
2022-07-31T19:56:59.605Z,22.20
2022-07-31T19:59:26.337Z,22.30
2022-07-31T20:01:53.018Z,22.40
2022-07-31T20:04:19.670Z,22.40
2022-07-31T20:06:46.363Z,22.40
2022-07-31T20:09:13.631Z,22.40
2022-07-31T20:11:40.333Z,22.50
2022-07-31T20:14:07.027Z,22.60
2022-07-31T20:16:33.861Z,22.60
2022-07-31T20:19:01.235Z,22.60
2022-07-31T20:21:34.949Z,22.60
2022-07-31T20:24:02.852Z,22.50
2022-07-31T20:26:31.414Z,22.60
2022-07-31T20:28:58.164Z,22.50
2022-07-31T20:31:24.833Z,22.50
2022-07-31T20:33:56.898Z,22.50
2022-07-31T20:36:25.785Z,22.50
2022-07-31T20:38:52.815Z,22.40
2022-07-31T20:41:19.499Z,22.20
2022-07-31T20:43:46.189Z,22.20
2022-07-31T20:46:12.972Z,22.10
2022-07-31T20:48:39.750Z,21.90
2022-07-31T20:51:09.025Z,22.10
2022-07-31T20:53:35.827Z,22.00
2022-07-31T20:56:02.576Z,21.90
2022-07-31T20:58:29.564Z,21.90
2022-07-31T21:00:56.321Z,21.80
2022-07-31T21:03:23.163Z,21.80
2022-07-31T21:05:50.243Z,21.80
2022-07-31T21:08:17.938Z,21.80
2022-07-31T21:10:45.136Z,21.80
2022-07-31T21:13:12.402Z,21.70
2022-07-31T21:15:44.248Z,21.80
2022-07-31T21:18:17.062Z,21.70
2022-07-31T21:20:50.277Z,21.70
2022-07-31T21:23:23.471Z,21.70
2022-07-31T21:25:55.362Z,21.70
2022-07-31T21:28:23.145Z,21.50
2022-07-31T21:30:50.239Z,21.50
2022-07-31T21:33:18.120Z,21.50
2022-07-31T21:35:45.939Z,21.60
2022-07-31T21:38:15.239Z,21.60
2022-07-31T21:40:42.263Z,21.60
2022-07-31T21:43:09.610Z,21.50
2022-07-31T21:45:50.533Z,21.50
2022-07-31T21:48:24.977Z,21.60
2022-07-31T21:50:52.521Z,21.60
2022-07-31T21:53:20.412Z,21.50
2022-07-31T21:55:47.109Z,21.40
2022-07-31T21:58:13.867Z,21.40
2022-07-31T22:00:40.704Z,21.40
2022-07-31T22:03:07.844Z,21.50
2022-07-31T22:05:53.424Z,21.50
2022-07-31T22:08:20.753Z,21.70
2022-07-31T22:10:49.993Z,21.70
2022-07-31T22:13:16.772Z,21.80
2022-07-31T22:15:59.187Z,21.80
2022-07-31T22:18:36.703Z,21.80
2022-07-31T22:21:08.294Z,21.60
2022-07-31T22:23:35.805Z,21.80
2022-07-31T22:26:02.954Z,21.80
2022-07-31T22:28:29.774Z,21.90
2022-07-31T22:30:57.378Z,21.90
2022-07-31T22:33:24.687Z,22.00
2022-07-31T22:35:58.481Z,22.00
2022-07-31T22:38:27.790Z,21.80
2022-07-31T22:40:54.499Z,21.80
2022-07-31T22:44:10.710Z,21.70
2022-07-31T22:46:11.948Z,21.70
2022-07-31T22:48:40.615Z,21.80
2022-07-31T22:51:08.240Z,21.90
2022-07-31T22:53:35.066Z,22.00
2022-07-31T22:56:01.862Z,22.10
2022-07-31T22:58:28.671Z,21.90
2022-07-31T23:00:56.318Z,21.80
2022-07-31T23:03:23.009Z,21.90
2022-07-31T23:06:02.549Z,22.00
2022-07-31T23:08:36.405Z,22.20
2022-07-31T23:11:03.144Z,22.30
2022-07-31T23:13:29.843Z,22.30
2022-07-31T23:15:56.583Z,22.30
2022-07-31T23:18:23.339Z,22.20
2022-07-31T23:20:50.051Z,22.30
2022-07-31T23:23:16.750Z,22.20
2022-07-31T23:25:43.428Z,22.10
2022-07-31T23:28:10.098Z,22.30
2022-07-31T23:30:36.832Z,22.30
2022-07-31T23:33:03.595Z,22.20
2022-07-31T23:35:30.286Z,22.30
2022-07-31T23:37:57.005Z,22.40
2022-07-31T23:40:23.746Z,22.30
2022-07-31T23:42:50.428Z,22.20
2022-07-31T23:45:18.902Z,22.10
2022-07-31T23:47:47.431Z,22.00
2022-07-31T23:50:15.623Z,22.10
2022-07-31T23:52:45.660Z,22.10
2022-07-31T23:55:12.886Z,22.20
2022-07-31T23:57:41.265Z,22.10
